Time;durP1;ratioP1;P1;durP2;ratioP2;P2;SDS_P1;SDS_P2;PMS_P1;PMS_P2;Temp;Humidity;BMP_temperature;BMP_pressure;BME280_temperature;BME280_humidity;BME280_pressure;Samples;Min_cycle;Max_cycle;Signal;HPM_P1;HPM_P2
2022/02/11 00:00:53;;;;;;;;;;;5.40;92.70;;;;;;5033640;28;19915;-66
2022/02/11 00:08:33;;;;;;;;;;;5.40;92.80;;;;;;5047839;28;19951;-67
2022/02/11 00:10:59;;;;;;;;;;;5.40;93.00;;;;;;5044830;28;19951;-67
2022/02/11 00:13:28;;;;;;;;;;;5.40;92.80;;;;;;5062656;28;19909;-66
2022/02/11 00:15:55;;;;;;;;;;;5.40;93.00;;;;;;5028553;28;20262;-66
2022/02/11 00:18:21;;;;;;;;;;;5.40;92.90;;;;;;5028566;28;20143;-66
2022/02/11 00:20:51;;;;;;;;;;;5.40;92.80;;;;;;5018040;28;19917;-67
2022/02/11 00:23:20;;;;;;;;;;;5.30;92.90;;;;;;4988970;28;19909;-66
2022/02/11 00:25:51;;;;;;;;;;;5.30;93.00;;;;;;4989226;28;20164;-67
2022/02/11 00:33:56;;;;;;;;;;;5.20;93.00;;;;;;5007790;28;19984;-68
2022/02/11 00:36:35;;;;;;;;;;;5.10;93.20;;;;;;5004910;28;20212;-68
2022/02/11 01:03:54;;;;;;;;;;;5.10;93.30;;;;;;5046814;28;19916;-67
2022/02/11 01:06:20;;;;;;;;;;;5.10;93.10;;;;;;5061513;28;20203;-67
2022/02/11 01:08:52;;;;;;;;;;;5.10;93.10;;;;;;5043812;28;19909;-67
2022/02/11 01:11:28;;;;;;;;;;;5.00;93.10;;;;;;5044541;28;19917;-68
2022/02/11 01:14:06;;;;;;;;;;;5.00;93.20;;;;;;5028792;28;19908;-68
2022/02/11 01:19:47;;;;;;;;;;;4.90;93.30;;;;;;5046695;28;19919;-67
2022/02/11 01:37:50;;;;;;;;;;;4.70;93.50;;;;;;5060303;28;19927;-66
2022/02/11 01:54:48;;;;;;;;;;;4.80;93.20;;;;;;5027875;28;20219;-67
2022/02/11 01:56:45;;;;;;;;;;;4.80;93.30;;;;;;5025937;28;19936;-66
2022/02/11 02:35:48;;;;;;;;;;;4.90;92.90;;;;;;5034299;28;19919;-67
2022/02/11 02:50:13;;;;;;;;;;;5.00;93.00;;;;;;5044695;28;20163;-66
2022/02/11 02:59:04;;;;;;;;;;;4.90;93.10;;;;;;5043749;28;20116;-67
2022/02/11 03:01:49;;;;;;;;;;;4.90;93.20;;;;;;5042868;28;19909;-66
2022/02/11 04:28:08;;;;;;;;;;;4.50;97.60;;;;;;5044935;28;19940;-67
2022/02/11 04:59:55;;;;;;;;;;;4.30;98.20;;;;;;5041987;28;19967;-66
2022/02/11 05:02:25;;;;;;;;;;;4.20;98.30;;;;;;5041710;28;20147;-66
2022/02/11 05:04:54;;;;;;;;;;;4.20;98.20;;;;;;5041850;28;19932;-66
2022/02/11 05:07:20;;;;;;;;;;;4.00;98.40;;;;;;5042212;28;19913;-67
2022/02/11 05:09:46;;;;;;;;;;;4.10;98.30;;;;;;5060244;28;19958;-66
2022/02/11 05:12:11;;;;;;;;;;;4.10;98.10;;;;;;5061240;28;19936;-66
2022/02/11 05:14:37;;;;;;;;;;;4.10;97.70;;;;;;5061447;28;19912;-67
2022/02/11 05:17:03;;;;;;;;;;;3.90;97.00;;;;;;5043732;28;20015;-67
2022/02/11 05:19:29;;;;;;;;;;;3.70;96.60;;;;;;5061345;28;20195;-67
2022/02/11 05:21:55;;;;;;;;;;;3.70;96.90;;;;;;5042072;28;19909;-66
2022/02/11 05:24:20;;;;;;;;;;;3.60;96.70;;;;;;5041167;28;20111;-67
2022/02/11 05:26:46;;;;;;;;;;;3.60;96.80;;;;;;5041492;28;19967;-68
2022/02/11 05:29:12;;;;;;;;;;;3.60;96.90;;;;;;5024104;28;19980;-67
2022/02/11 05:31:37;;;;;;;;;;;3.50;96.90;;;;;;5029128;28;20023;-66
2022/02/11 05:34:03;;;;;;;;;;;3.40;96.80;;;;;;5040832;28;19979;-66
2022/02/11 05:36:29;;;;;;;;;;;3.40;96.90;;;;;;5040933;28;19917;-66
2022/02/11 05:38:55;;;;;;;;;;;3.30;96.80;;;;;;5047713;28;19971;-66
2022/02/11 05:41:20;;;;;;;;;;;3.30;96.50;;;;;;5057583;28;19924;-66
2022/02/11 05:43:47;;;;;;;;;;;3.30;96.70;;;;;;5043259;28;20222;-65
2022/02/11 05:46:12;;;;;;;;;;;3.30;96.70;;;;;;5043145;28;19920;-65
2022/02/11 05:48:39;;;;;;;;;;;3.30;96.60;;;;;;5042235;28;19939;-65
2022/02/11 05:51:08;;;;;;;;;;;3.30;97.10;;;;;;5060683;28;19950;-65
2022/02/11 05:53:34;;;;;;;;;;;3.30;97.10;;;;;;5041708;28;19932;-65
2022/02/11 05:55:59;;;;;;;;;;;3.30;97.30;;;;;;5060900;28;19947;-65
2022/02/11 05:58:25;;;;;;;;;;;3.30;97.00;;;;;;5023343;28;19967;-65
2022/02/11 06:00:51;;;;;;;;;;;3.30;97.00;;;;;;5020156;28;19909;-66
2022/02/11 06:03:17;;;;;;;;;;;3.30;97.20;;;;;;5040577;28;19952;-66
2022/02/11 06:05:42;;;;;;;;;;;3.30;97.30;;;;;;5036817;28;19913;-66
2022/02/11 06:08:08;;;;;;;;;;;3.20;97.60;;;;;;5048036;28;19988;-66
2022/02/11 06:10:34;;;;;;;;;;;3.20;97.80;;;;;;5060142;28;19982;-66
2022/02/11 06:13:00;;;;;;;;;;;3.30;98.00;;;;;;5056744;28;19913;-66
2022/02/11 06:15:26;;;;;;;;;;;3.30;97.90;;;;;;5040371;28;20159;-67
2022/02/11 06:17:51;;;;;;;;;;;3.30;98.00;;;;;;5040124;28;19913;-66
2022/02/11 06:20:17;;;;;;;;;;;3.20;98.20;;;;;;5040296;28;19920;-66
2022/02/11 06:22:45;;;;;;;;;;;3.20;98.30;;;;;;5022794;28;19976;-67
2022/02/11 06:25:12;;;;;;;;;;;3.20;98.10;;;;;;5041018;28;19921;-67
2022/02/11 06:27:37;;;;;;;;;;;3.20;97.90;;;;;;5040327;28;19920;-67
2022/02/11 06:30:03;;;;;;;;;;;3.20;98.10;;;;;;5040318;28;19909;-67
2022/02/11 06:32:29;;;;;;;;;;;3.20;97.90;;;;;;5039952;28;19909;-67
2022/02/11 06:34:57;;;;;;;;;;;3.10;98.10;;;;;;5022636;28;20375;-66
2022/02/11 06:37:23;;;;;;;;;;;3.00;97.60;;;;;;5042196;28;19913;-66
2022/02/11 06:39:49;;;;;;;;;;;3.00;97.70;;;;;;5045842;28;20035;-66
2022/02/11 06:42:14;;;;;;;;;;;2.90;97.70;;;;;;5044867;28;19969;-66
2022/02/11 06:44:40;;;;;;;;;;;2.90;97.90;;;;;;5063627;28;19927;-66
2022/02/11 06:47:06;;;;;;;;;;;2.90;97.80;;;;;;5062642;28;20191;-66
2022/02/11 06:49:32;;;;;;;;;;;2.80;97.70;;;;;;5045698;28;20154;-66
2022/02/11 06:51:57;;;;;;;;;;;2.70;97.50;;;;;;5063606;28;19985;-66
2022/02/11 06:54:23;;;;;;;;;;;2.70;97.60;;;;;;5063646;28;19909;-66
2022/02/11 06:56:49;;;;;;;;;;;2.60;97.80;;;;;;5063868;28;19908;-67
2022/02/11 06:59:14;;;;;;;;;;;2.60;97.80;;;;;;5045860;28;19909;-66
2022/02/11 07:01:40;;;;;;;;;;;2.60;97.80;;;;;;5063479;28;19959;-66
2022/02/11 07:04:06;;;;;;;;;;;2.60;97.80;;;;;;5045539;28;19908;-67
2022/02/11 07:06:32;;;;;;;;;;;2.50;97.30;;;;;;5063516;28;19908;-67
2022/02/11 07:08:58;;;;;;;;;;;2.50;97.50;;;;;;5063527;28;19972;-67
2022/02/11 07:11:23;;;;;;;;;;;2.50;97.50;;;;;;5045405;28;19947;-66
2022/02/11 07:13:49;;;;;;;;;;;2.40;97.30;;;;;;5063532;28;19925;-67
2022/02/11 07:16:17;;;;;;;;;;;2.40;97.40;;;;;;5063386;28;19970;-66
2022/02/11 07:18:44;;;;;;;;;;;2.40;97.30;;;;;;5063054;28;19908;-66
2022/02/11 07:21:10;;;;;;;;;;;2.40;97.00;;;;;;5062997;28;19966;-66
2022/02/11 07:23:35;;;;;;;;;;;2.50;97.30;;;;;;5045437;28;19947;-69
2022/02/11 07:26:01;;;;;;;;;;;2.50;97.10;;;;;;5045512;28;19916;-66
2022/02/11 07:28:27;;;;;;;;;;;2.60;97.20;;;;;;5063052;28;19919;-66
2022/02/11 07:30:53;;;;;;;;;;;2.60;96.80;;;;;;5045158;28;19962;-66
2022/02/11 07:33:18;;;;;;;;;;;2.70;97.00;;;;;;5045016;28;20115;-66
2022/02/11 07:35:47;;;;;;;;;;;2.70;96.50;;;;;;5062931;28;19931;-67
2022/02/11 07:38:13;;;;;;;;;;;2.80;96.70;;;;;;5062813;28;19913;-67
2022/02/11 07:40:39;;;;;;;;;;;2.80;96.20;;;;;;5062791;28;19932;-67
2022/02/11 07:43:05;;;;;;;;;;;2.80;96.00;;;;;;5045561;28;19924;-66
2022/02/11 07:45:31;;;;;;;;;;;2.80;95.80;;;;;;5044995;28;20069;-67
2022/02/11 07:47:56;;;;;;;;;;;2.80;95.60;;;;;;5062407;28;19946;-67
2022/02/11 07:50:22;;;;;;;;;;;2.80;95.70;;;;;;5062564;28;20063;-67
2022/02/11 07:52:48;;;;;;;;;;;2.80;95.60;;;;;;5062152;28;20253;-67
2022/02/11 07:55:14;;;;;;;;;;;2.70;94.40;;;;;;5061206;28;20065;-67
2022/02/11 07:57:39;;;;;;;;;;;2.70;94.60;;;;;;5062522;28;19916;-67
2022/02/11 08:00:06;;;;;;;;;;;2.80;94.60;;;;;;5045109;28;19979;-67
2022/02/11 08:02:34;;;;;;;;;;;2.80;94.50;;;;;;5044678;28;19909;-66
2022/02/11 08:05:01;;;;;;;;;;;2.80;94.40;;;;;;5045017;28;19979;-66
2022/02/11 08:07:27;;;;;;;;;;;2.80;94.20;;;;;;5044568;28;19917;-66
2022/02/11 08:09:53;;;;;;;;;;;3.00;94.30;;;;;;5062569;28;19909;-66
2022/02/11 08:12:19;;;;;;;;;;;3.00;94.10;;;;;;5062131;28;20211;-67
2022/02/11 08:14:44;;;;;;;;;;;3.10;94.00;;;;;;5044490;28;19913;-67
2022/02/11 08:17:10;;;;;;;;;;;3.10;93.40;;;;;;5061206;28;19917;-67
2022/02/11 08:19:36;;;;;;;;;;;3.10;93.40;;;;;;5062099;28;19970;-67
2022/02/11 08:22:01;;;;;;;;;;;3.10;93.60;;;;;;5043924;28;20175;-67
2022/02/11 08:24:27;;;;;;;;;;;3.20;93.60;;;;;;5061779;28;19951;-66
2022/02/11 08:26:53;;;;;;;;;;;3.20;93.40;;;;;;5062037;28;19917;-68
2022/02/11 08:29:25;;;;;;;;;;;3.20;93.40;;;;;;5061920;28;19909;-67
2022/02/11 08:31:56;;;;;;;;;;;3.20;93.40;;;;;;5061721;28;19917;-66
2022/02/11 08:34:22;;;;;;;;;;;3.20;93.10;;;;;;5061699;28;20191;-66
2022/02/11 08:36:48;;;;;;;;;;;3.10;93.50;;;;;;5027388;28;19916;-66
2022/02/11 08:39:15;;;;;;;;;;;3.10;93.10;;;;;;5061405;28;19931;-66
2022/02/11 08:41:41;;;;;;;;;;;3.00;93.20;;;;;;5060132;28;19917;-66
2022/02/11 08:44:06;;;;;;;;;;;3.00;93.50;;;;;;5061895;28;19958;-66
2022/02/11 08:46:32;;;;;;;;;;;3.00;93.20;;;;;;5044013;28;19909;-66
2022/02/11 08:48:58;;;;;;;;;;;3.10;93.20;;;;;;5061644;28;19916;-66
2022/02/11 08:51:24;;;;;;;;;;;3.10;93.00;;;;;;5060445;28;19987;-67
2022/02/11 08:53:51;;;;;;;;;;;3.10;92.30;;;;;;5060362;28;19920;-66
2022/02/11 08:56:17;;;;;;;;;;;3.20;92.90;;;;;;5061435;28;19913;-67
2022/02/11 08:58:43;;;;;;;;;;;3.30;92.70;;;;;;5043744;28;19908;-66
2022/02/11 09:01:09;;;;;;;;;;;3.40;92.20;;;;;;5043515;28;20262;-67
2022/02/11 09:03:39;;;;;;;;;;;3.40;91.40;;;;;;5061515;28;19948;-67
2022/02/11 09:06:06;;;;;;;;;;;3.50;91.10;;;;;;5061517;28;19995;-66
2022/02/11 09:08:35;;;;;;;;;;;3.60;91.30;;;;;;5043512;28;19966;-66
2022/02/11 09:11:01;;;;;;;;;;;3.60;91.00;;;;;;5060848;28;20000;-67
2022/02/11 09:13:27;;;;;;;;;;;3.60;91.20;;;;;;5043544;28;19909;-67
2022/02/11 09:15:56;;;;;;;;;;;3.60;90.40;;;;;;5043229;28;20208;-66
2022/02/11 09:18:22;;;;;;;;;;;3.70;90.50;;;;;;5043360;28;20046;-66
2022/02/11 09:20:48;;;;;;;;;;;3.80;90.10;;;;;;5059390;28;19916;-67
2022/02/11 09:23:20;;;;;;;;;;;3.90;89.90;;;;;;5043359;28;19909;-67
2022/02/11 09:25:46;;;;;;;;;;;4.00;89.70;;;;;;5060934;28;20183;-67
2022/02/11 09:28:11;;;;;;;;;;;4.00;88.90;;;;;;5061128;28;20039;-67
2022/02/11 09:30:37;;;;;;;;;;;4.10;89.50;;;;;;5060935;28;19917;-67
2022/02/11 09:33:05;;;;;;;;;;;4.00;89.30;;;;;;5061575;28;19909;-67
2022/02/11 09:35:31;;;;;;;;;;;4.00;88.90;;;;;;5061443;28;19974;-67
2022/02/11 09:37:57;;;;;;;;;;;4.00;88.80;;;;;;5061088;28;19920;-67
2022/02/11 09:40:23;;;;;;;;;;;3.90;89.70;;;;;;5043113;28;19950;-67
2022/02/11 09:42:52;;;;;;;;;;;3.90;90.40;;;;;;5042999;28;20099;-66
2022/02/11 09:45:18;;;;;;;;;;;4.00;90.50;;;;;;5043294;28;20054;-67
2022/02/11 09:47:44;;;;;;;;;;;4.00;90.40;;;;;;5043092;28;19920;-67
2022/02/11 09:50:10;;;;;;;;;;;4.00;90.20;;;;;;5061165;28;19920;-67
2022/02/11 09:52:43;;;;;;;;;;;3.90;90.30;;;;;;5042518;28;20014;-67
2022/02/11 09:57:54;;;;;;;;;;;4.00;90.60;;;;;;5060978;28;19916;-67
2022/02/11 10:00:25;;;;;;;;;;;4.10;90.50;;;;;;5042995;28;19909;-67
2022/02/11 10:02:54;;;;;;;;;;;4.30;90.10;;;;;;5060510;28;20162;-67
2022/02/11 10:05:24;;;;;;;;;;;4.30;90.10;;;;;;5060789;28;20207;-67
2022/02/11 10:07:50;;;;;;;;;;;4.40;90.20;;;;;;5043567;28;19948;-67
2022/02/11 10:10:18;;;;;;;;;;;4.40;90.30;;;;;;5042604;28;19917;-67
2022/02/11 10:12:47;;;;;;;;;;;4.30;90.30;;;;;;5062298;28;20251;-67
2022/02/11 10:15:19;;;;;;;;;;;4.40;90.30;;;;;;5064482;28;19919;-67
2022/02/11 10:17:45;;;;;;;;;;;4.30;90.30;;;;;;5064478;28;19999;-67
2022/02/11 10:20:11;;;;;;;;;;;4.30;89.70;;;;;;5064276;28;19924;-67
2022/02/11 10:22:36;;;;;;;;;;;4.40;90.00;;;;;;5046281;28;19909;-67
2022/02/11 10:25:02;;;;;;;;;;;4.40;89.90;;;;;;5064337;28;19924;-67
2022/02/11 10:27:30;;;;;;;;;;;4.30;89.70;;;;;;5063101;28;20180;-67
2022/02/11 10:30:07;;;;;;;;;;;4.40;90.00;;;;;;5046339;28;19924;-67
2022/02/11 10:32:48;;;;;;;;;;;4.50;88.80;;;;;;5064072;28;19908;-67
2022/02/11 10:35:17;;;;;;;;;;;4.50;89.30;;;;;;5064041;28;19913;-67
2022/02/11 10:38:06;;;;;;;;;;;4.50;89.60;;;;;;5063943;28;19975;-67
2022/02/11 10:40:32;;;;;;;;;;;4.50;89.40;;;;;;5062894;28;19943;-67
2022/02/11 10:42:58;;;;;;;;;;;4.50;89.80;;;;;;5063982;28;19909;-67
2022/02/11 10:45:37;;;;;;;;;;;4.50;89.80;;;;;;5064169;28;20128;-67
2022/02/11 10:48:19;;;;;;;;;;;4.60;89.40;;;;;;5064018;28;19909;-67
2022/02/11 10:50:47;;;;;;;;;;;4.70;89.30;;;;;;5029412;28;19931;-67
2022/02/11 10:53:20;;;;;;;;;;;4.70;89.10;;;;;;5045217;28;19959;-67
2022/02/11 10:55:47;;;;;;;;;;;4.90;88.30;;;;;;5063640;28;20170;-67
2022/02/11 10:58:17;;;;;;;;;;;5.00;87.60;;;;;;5063805;28;20075;-67
2022/02/11 11:00:43;;;;;;;;;;;5.10;87.00;;;;;;5063626;28;20064;-67
2022/02/11 11:03:10;;;;;;;;;;;5.10;86.00;;;;;;5045918;28;19988;-67
2022/02/11 11:05:45;;;;;;;;;;;5.10;86.20;;;;;;5045866;28;20191;-67
2022/02/11 11:08:14;;;;;;;;;;;5.10;86.90;;;;;;5063496;28;19917;-66
2022/02/11 11:10:48;;;;;;;;;;;5.20;86.80;;;;;;5045138;28;19915;-67
2022/02/11 11:13:15;;;;;;;;;;;5.30;85.80;;;;;;5045829;28;19908;-66
2022/02/11 11:15:42;;;;;;;;;;;5.40;84.60;;;;;;5045613;28;20196;-67
2022/02/11 11:18:10;;;;;;;;;;;5.50;84.60;;;;;;5045572;28;19963;-67
2022/02/11 11:20:36;;;;;;;;;;;5.50;84.90;;;;;;5045317;28;19939;-66
2022/02/11 11:23:06;;;;;;;;;;;5.50;84.10;;;;;;5045010;28;19976;-67
2022/02/11 11:26:05;;;;;;;;;;;5.40;84.70;;;;;;5045158;28;19915;-68
2022/02/11 11:28:48;;;;;;;;;;;5.40;84.10;;;;;;5063031;28;20051;-67
2022/02/11 11:31:24;;;;;;;;;;;5.30;84.70;;;;;;5062730;28;20002;-67
2022/02/11 11:33:50;;;;;;;;;;;5.20;86.20;;;;;;5045170;28;19932;-67
2022/02/11 11:36:17;;;;;;;;;;;5.20;86.70;;;;;;5045187;28;19921;-66
2022/02/11 11:38:47;;;;;;;;;;;5.30;84.60;;;;;;5044976;28;19944;-66
2022/02/11 11:41:23;;;;;;;;;;;5.30;85.20;;;;;;5062600;28;19917;-66
2022/02/11 11:43:59;;;;;;;;;;;5.20;85.60;;;;;;5063036;28;19949;-66
2022/02/11 11:46:27;;;;;;;;;;;5.20;85.40;;;;;;5045339;28;20008;-67
2022/02/11 11:49:08;;;;;;;;;;;5.20;84.50;;;;;;5045204;28;20254;-66
2022/02/11 11:51:37;;;;;;;;;;;5.20;85.60;;;;;;5062596;28;19996;-66
2022/02/11 11:54:18;;;;;;;;;;;5.10;86.30;;;;;;5061420;28;19908;-66
2022/02/11 11:56:47;;;;;;;;;;;5.10;86.60;;;;;;5062552;28;19959;-67
2022/02/11 11:59:14;;;;;;;;;;;5.20;87.30;;;;;;5044867;28;20247;-67
2022/02/11 12:02:05;;;;;;;;;;;5.40;87.40;;;;;;5060993;28;19909;-67
2022/02/11 12:04:45;;;;;;;;;;;5.50;86.30;;;;;;5062572;28;19924;-66
2022/02/11 12:07:14;;;;;;;;;;;5.50;86.60;;;;;;5062441;28;20087;-66
2022/02/11 12:09:48;;;;;;;;;;;5.70;86.00;;;;;;5062025;28;19909;-66
2022/02/11 12:12:14;;;;;;;;;;;6.00;85.50;;;;;;5062027;28;19968;-67
2022/02/11 12:14:41;;;;;;;;;;;6.30;85.60;;;;;;5044291;28;19909;-67
2022/02/11 12:17:08;;;;;;;;;;;7.00;80.50;;;;;;5061978;28;19909;-67
2022/02/11 12:19:34;;;;;;;;;;;6.80;79.10;;;;;;5044712;28;19916;-66
2022/02/11 12:22:00;;;;;;;;;;;6.60;80.60;;;;;;5061645;28;19908;-66
2022/02/11 12:27:30;;;;;;;;;;;5.70;83.20;;;;;;5061914;28;19937;-66
2022/02/11 12:29:58;;;;;;;;;;;5.60;84.20;;;;;;5046902;28;19912;-66
2022/02/11 12:32:25;;;;;;;;;;;5.40;84.40;;;;;;5061734;28;20302;-66
2022/02/11 12:34:53;;;;;;;;;;;5.30;84.70;;;;;;5043457;28;19955;-67
2022/02/11 12:37:19;;;;;;;;;;;5.20;85.00;;;;;;5043924;28;19917;-66
2022/02/11 12:39:46;;;;;;;;;;;5.20;85.90;;;;;;5060791;28;19909;-66
2022/02/11 12:42:16;;;;;;;;;;;5.20;85.70;;;;;;5043500;28;20214;-67
2022/02/11 12:44:42;;;;;;;;;;;5.20;86.20;;;;;;5044166;28;19916;-67
2022/02/11 12:47:08;;;;;;;;;;;5.20;86.10;;;;;;5045974;28;19909;-67
2022/02/11 12:49:42;;;;;;;;;;;5.10;86.30;;;;;;5023994;28;19931;-67
2022/02/11 12:52:07;;;;;;;;;;;5.00;86.80;;;;;;5040592;28;19909;-66
2022/02/11 12:54:33;;;;;;;;;;;5.10;86.50;;;;;;5041631;28;19948;-66
2022/02/11 12:57:04;;;;;;;;;;;5.10;87.40;;;;;;5045715;28;19956;-67
2022/02/11 12:59:30;;;;;;;;;;;5.40;85.60;;;;;;5061565;28;19908;-67
2022/02/11 13:01:55;;;;;;;;;;;5.80;84.10;;;;;;5061030;28;19983;-67
2022/02/11 13:04:21;;;;;;;;;;;6.00;82.50;;;;;;5043563;28;20106;-67
2022/02/11 13:06:47;;;;;;;;;;;6.00;83.10;;;;;;5043598;28;19947;-67
2022/02/11 13:09:13;;;;;;;;;;;5.80;82.40;;;;;;5043537;28;19975;-67
2022/02/11 13:11:43;;;;;;;;;;;5.60;83.50;;;;;;5043076;28;20384;-67
2022/02/11 13:14:09;;;;;;;;;;;5.50;85.30;;;;;;5061455;28;19931;-67
2022/02/11 13:16:35;;;;;;;;;;;5.90;83.80;;;;;;5061231;28;20247;-67
2022/02/11 13:19:16;;;;;;;;;;;6.30;83.00;;;;;;5061163;28;19909;-67
2022/02/11 13:21:42;;;;;;;;;;;7.50;75.70;;;;;;5060965;28;20061;-67
2022/02/11 13:24:08;;;;;;;;;;;7.90;73.80;;;;;;5061237;28;20146;-67
2022/02/11 13:26:34;;;;;;;;;;;7.70;72.60;;;;;;5043162;28;19909;-66
2022/02/11 13:29:00;;;;;;;;;;;7.60;75.90;;;;;;5043381;28;19909;-67
2022/02/11 13:31:26;;;;;;;;;;;9.60;68.50;;;;;;5043079;28;19920;-67
2022/02/11 13:34:07;;;;;;;;;;;12.60;55.70;;;;;;5043371;28;19934;-67
2022/02/11 13:36:33;;;;;;;;;;;12.80;50.80;;;;;;5060978;28;19996;-67
2022/02/11 13:39:01;;;;;;;;;;;12.00;52.30;;;;;;5043077;28;19913;-66
2022/02/11 13:41:38;;;;;;;;;;;11.20;56.10;;;;;;5060389;28;19944;-66
2022/02/11 13:44:09;;;;;;;;;;;10.20;59.60;;;;;;5060873;28;20204;-67
2022/02/11 13:46:40;;;;;;;;;;;12.20;53.60;;;;;;5045585;28;19909;-67
2022/02/11 13:49:10;;;;;;;;;;;14.10;47.60;;;;;;5047326;28;19923;-67
2022/02/11 13:51:36;;;;;;;;;;;16.10;43.60;;;;;;5046911;28;19940;-67
2022/02/11 13:54:12;;;;;;;;;;;17.20;39.10;;;;;;5047031;28;19935;-68
2022/02/11 13:56:39;;;;;;;;;;;17.10;38.70;;;;;;5063261;28;19952;-67
2022/02/11 13:59:06;;;;;;;;;;;17.20;38.90;;;;;;5064743;28;19962;-68
2022/02/11 14:01:36;;;;;;;;;;;15.40;39.70;;;;;;5046823;28;19979;-68
2022/02/11 14:04:04;;;;;;;;;;;15.00;42.20;;;;;;5046776;28;19966;-67
2022/02/11 14:06:36;;;;;;;;;;;14.80;41.80;;;;;;5047074;28;19924;-68
2022/02/11 14:09:10;;;;;;;;;;;13.90;44.30;;;;;;5064457;28;19940;-67
2022/02/11 14:11:37;;;;;;;;;;;12.90;46.70;;;;;;5064121;28;20325;-67
2022/02/11 14:14:17;;;;;;;;;;;11.80;49.40;;;;;;5064415;28;19920;-67
2022/02/11 14:16:46;;;;;;;;;;;10.50;53.10;;;;;;5064401;28;19935;-66
2022/02/11 14:19:14;;;;;;;;;;;9.70;57.00;;;;;;5064546;28;19976;-67
2022/02/11 14:21:40;;;;;;;;;;;9.00;60.30;;;;;;5064140;28;19909;-66
2022/02/11 14:24:07;;;;;;;;;;;8.10;65.80;;;;;;5064471;28;19912;-66
2022/02/11 14:26:32;;;;;;;;;;;7.80;69.80;;;;;;5063026;28;19984;-66
2022/02/11 14:28:58;;;;;;;;;;;7.40;72.30;;;;;;5046274;28;19913;-66
2022/02/11 14:31:25;;;;;;;;;;;7.00;75.40;;;;;;5064024;28;20385;-67
2022/02/11 14:33:50;;;;;;;;;;;6.90;75.80;;;;;;5046547;28;20105;-66
2022/02/11 14:36:16;;;;;;;;;;;6.70;75.60;;;;;;5046175;28;19989;-66
2022/02/11 14:38:42;;;;;;;;;;;6.60;76.50;;;;;;5064054;28;19958;-67
2022/02/11 14:43:51;;;;;;;;;;;6.60;76.60;;;;;;5048741;28;19976;-67
2022/02/11 14:46:17;;;;;;;;;;;6.60;76.70;;;;;;5063092;28;19909;-67
2022/02/11 14:48:43;;;;;;;;;;;6.60;76.50;;;;;;5045944;28;19976;-67
2022/02/11 14:51:09;;;;;;;;;;;6.70;75.80;;;;;;5063421;28;19909;-67
2022/02/11 14:53:35;;;;;;;;;;;6.60;76.50;;;;;;5045965;28;19909;-67
2022/02/11 14:56:01;;;;;;;;;;;6.70;75.80;;;;;;5063897;28;20405;-68
2022/02/11 14:58:26;;;;;;;;;;;6.70;74.90;;;;;;5061479;28;19996;-67
2022/02/11 15:00:52;;;;;;;;;;;6.70;74.40;;;;;;5045581;28;19908;-66
2022/02/11 15:03:18;;;;;;;;;;;6.70;73.70;;;;;;5046167;28;19909;-66
2022/02/11 15:05:44;;;;;;;;;;;6.60;74.80;;;;;;5045749;28;20160;-67
2022/02/11 15:08:10;;;;;;;;;;;6.60;74.90;;;;;;5043206;28;19952;-68
2022/02/11 15:10:36;;;;;;;;;;;6.70;74.80;;;;;;5035811;28;19924;-70
2022/02/11 15:13:08;;;;;;;;;;;6.40;74.40;;;;;;5025418;28;19916;-69
2022/02/11 15:15:38;;;;;;;;;;;6.10;75.90;;;;;;5042194;28;19944;-70
2022/02/11 15:18:05;;;;;;;;;;;6.10;77.00;;;;;;5042912;28;19920;-68
2022/02/11 15:20:32;;;;;;;;;;;5.90;77.70;;;;;;5050749;28;20108;-68
2022/02/11 15:22:58;;;;;;;;;;;5.80;77.60;;;;;;5031946;28;19913;-68
2022/02/11 15:25:24;;;;;;;;;;;5.70;78.20;;;;;;5023421;28;19917;-68
2022/02/11 15:27:49;;;;;;;;;;;5.70;77.70;;;;;;5043509;28;19908;-68
2022/02/11 15:30:15;;;;;;;;;;;5.60;78.30;;;;;;5062925;28;20231;-68
2022/02/11 15:32:42;;;;;;;;;;;5.70;77.90;;;;;;5062567;28;19916;-68
2022/02/11 15:35:08;;;;;;;;;;;5.60;77.00;;;;;;5044601;28;19912;-68
2022/02/11 15:37:35;;;;;;;;;;;5.60;76.00;;;;;;5062556;28;19954;-68
2022/02/11 15:40:00;;;;;;;;;;;5.80;76.80;;;;;;5045009;28;19924;-68
2022/02/11 15:42:26;;;;;;;;;;;5.80;76.00;;;;;;5062087;28;20136;-68
2022/02/11 15:44:52;;;;;;;;;;;5.80;76.40;;;;;;5062580;28;19944;-68
2022/02/11 15:47:17;;;;;;;;;;;5.70;77.00;;;;;;5062229;28;19933;-68
2022/02/11 15:49:43;;;;;;;;;;;5.70;76.50;;;;;;5061534;28;20142;-68
2022/02/11 15:52:09;;;;;;;;;;;5.70;75.60;;;;;;5028454;28;20015;-67
2022/02/11 15:54:35;;;;;;;;;;;5.70;75.90;;;;;;5041566;28;19909;-68
2022/02/11 15:57:01;;;;;;;;;;;5.70;75.00;;;;;;5045544;28;19963;-68
2022/02/11 15:59:27;;;;;;;;;;;5.70;74.80;;;;;;5042765;28;19936;-69
2022/02/11 16:01:54;;;;;;;;;;;5.60;75.90;;;;;;5043996;28;19927;-70
2022/02/11 16:04:20;;;;;;;;;;;5.60;76.60;;;;;;5061784;28;19908;-70
2022/02/11 16:06:46;;;;;;;;;;;5.60;76.30;;;;;;5043944;28;19923;-65
2022/02/11 16:09:12;;;;;;;;;;;5.60;75.90;;;;;;5061039;28;20103;-67
2022/02/11 16:11:37;;;;;;;;;;;5.60;75.60;;;;;;5060603;28;20116;-67
2022/02/11 16:14:03;;;;;;;;;;;5.50;75.90;;;;;;5061546;28;20203;-67
2022/02/11 16:16:29;;;;;;;;;;;5.40;76.30;;;;;;5061594;28;19912;-67
2022/02/11 16:18:56;;;;;;;;;;;5.40;76.20;;;;;;5061319;28;19992;-68
2022/02/11 16:21:22;;;;;;;;;;;5.30;75.60;;;;;;5044085;28;20282;-66
2022/02/11 16:23:47;;;;;;;;;;;5.30;75.70;;;;;;5032517;28;19909;-65
2022/02/11 16:26:13;;;;;;;;;;;5.30;76.00;;;;;;5041273;28;20103;-69
2022/02/11 16:28:39;;;;;;;;;;;5.30;75.90;;;;;;5033671;28;20150;-68
2022/02/11 16:31:23;;;;;;;;;;;5.30;76.30;;;;;;5043446;28;20342;-68
2022/02/11 16:33:51;;;;;;;;;;;5.30;74.70;;;;;;5044142;28;19909;-68
2022/02/11 16:36:18;;;;;;;;;;;5.30;73.90;;;;;;5043707;28;19935;-68
2022/02/11 16:38:44;;;;;;;;;;;5.30;73.80;;;;;;5043608;28;19968;-69
2022/02/11 16:41:10;;;;;;;;;;;5.30;74.20;;;;;;5041452;28;19909;-69
2022/02/11 16:43:36;;;;;;;;;;;5.30;73.80;;;;;;5037503;28;19963;-71
2022/02/11 16:46:02;;;;;;;;;;;5.30;74.10;;;;;;5027721;28;19919;-69
2022/02/11 16:48:28;;;;;;;;;;;5.30;74.30;;;;;;5041066;28;19909;-69
2022/02/11 16:50:54;;;;;;;;;;;5.30;74.10;;;;;;5040281;28;20120;-69
2022/02/11 16:53:19;;;;;;;;;;;5.30;73.70;;;;;;5020261;28;19955;-69
2022/02/11 16:55:45;;;;;;;;;;;5.20;73.90;;;;;;5038244;28;19928;-69
2022/02/11 16:58:11;;;;;;;;;;;5.20;74.50;;;;;;5041465;28;20246;-69
2022/02/11 17:00:36;;;;;;;;;;;5.20;74.80;;;;;;5048855;28;19952;-69
2022/02/11 17:03:02;;;;;;;;;;;5.20;74.10;;;;;;5040990;28;19944;-69
2022/02/11 17:05:29;;;;;;;;;;;5.10;74.90;;;;;;5040783;28;20203;-69
2022/02/11 17:07:55;;;;;;;;;;;5.10;74.50;;;;;;5023584;28;19939;-69
2022/02/11 17:10:21;;;;;;;;;;;5.10;74.10;;;;;;5039621;28;19996;-68
2022/02/11 17:12:47;;;;;;;;;;;5.00;74.10;;;;;;5040478;28;19917;-69
2022/02/11 17:15:13;;;;;;;;;;;5.10;73.90;;;;;;5039408;28;19924;-69
2022/02/11 17:17:38;;;;;;;;;;;5.00;74.10;;;;;;5023236;28;19909;-69
2022/02/11 17:20:06;;;;;;;;;;;5.00;73.50;;;;;;5040853;28;19913;-69
2022/02/11 17:22:32;;;;;;;;;;;5.10;72.10;;;;;;4992619;28;19945;-68
2022/02/11 17:24:58;;;;;;;;;;;5.10;72.60;;;;;;5036441;28;19919;-68
2022/02/11 17:27:24;;;;;;;;;;;5.00;72.60;;;;;;5046217;28;19909;-67
2022/02/11 17:29:51;;;;;;;;;;;5.00;72.70;;;;;;5052764;28;20195;-67
2022/02/11 17:32:17;;;;;;;;;;;5.00;72.80;;;;;;5029827;28;19975;-67
2022/02/11 17:34:43;;;;;;;;;;;5.00;73.00;;;;;;5024010;28;19913;-67
2022/02/11 17:37:08;;;;;;;;;;;5.00;73.60;;;;;;5039231;28;20101;-67
2022/02/11 17:39:34;;;;;;;;;;;5.00;73.00;;;;;;5039112;28;20240;-67
2022/02/11 17:42:00;;;;;;;;;;;5.00;72.50;;;;;;5021662;28;19909;-67
2022/02/11 17:44:26;;;;;;;;;;;5.00;73.00;;;;;;5039581;28;19917;-68
2022/02/11 17:46:52;;;;;;;;;;;5.00;72.90;;;;;;5039946;28;20123;-67
2022/02/11 17:49:20;;;;;;;;;;;5.00;73.50;;;;;;5039050;28;19913;-68
2022/02/11 17:51:46;;;;;;;;;;;5.00;73.80;;;;;;5039483;28;19921;-69
2022/02/11 17:54:14;;;;;;;;;;;5.10;73.50;;;;;;5018379;28;19913;-68
2022/02/11 17:56:41;;;;;;;;;;;5.10;72.90;;;;;;4986812;28;20188;-68
2022/02/11 17:59:11;;;;;;;;;;;5.00;73.10;;;;;;5035946;28;19909;-69
2022/02/11 18:01:41;;;;;;;;;;;5.00;74.10;;;;;;5059849;28;19913;-68
2022/02/11 18:04:06;;;;;;;;;;;5.00;73.70;;;;;;5042629;28;19909;-68
2022/02/11 18:06:32;;;;;;;;;;;5.00;74.40;;;;;;5035576;28;19916;-69
2022/02/11 18:08:58;;;;;;;;;;;5.10;73.70;;;;;;5040056;28;20146;-69
2022/02/11 18:11:23;;;;;;;;;;;5.00;74.10;;;;;;5038037;28;19956;-69
2022/02/11 18:13:49;;;;;;;;;;;5.00;74.20;;;;;;5030978;28;19917;-68
2022/02/11 18:16:15;;;;;;;;;;;5.10;74.60;;;;;;5034430;28;19925;-68
2022/02/11 18:18:41;;;;;;;;;;;5.00;74.60;;;;;;5031613;28;19917;-68
2022/02/11 18:21:07;;;;;;;;;;;5.00;74.80;;;;;;5030259;28;20016;-68
2022/02/11 18:23:33;;;;;;;;;;;5.00;74.40;;;;;;5017000;28;20108;-68
2022/02/11 18:26:00;;;;;;;;;;;5.10;75.00;;;;;;5029343;28;20184;-68
2022/02/11 18:28:26;;;;;;;;;;;5.10;75.10;;;;;;5012579;28;20148;-67
2022/02/11 18:30:52;;;;;;;;;;;5.00;75.20;;;;;;5026025;28;19909;-68
2022/02/11 18:33:18;;;;;;;;;;;5.00;75.00;;;;;;5045568;28;19940;-68
2022/02/11 18:35:44;;;;;;;;;;;5.10;75.60;;;;;;5033308;28;19920;-67